createdAt,value
2018-09-19T00:01:10.149Z,88.40
2018-09-19T00:03:38.754Z,88.70
2018-09-19T00:06:07.541Z,88.70
2018-09-19T00:08:35.989Z,89.00
2018-09-19T00:11:04.534Z,89.40
2018-09-19T00:13:33.132Z,89.40
2018-09-19T00:16:01.615Z,89.70
2018-09-19T00:18:30.203Z,90.00
2018-09-19T00:20:58.669Z,90.20
2018-09-19T00:23:27.162Z,90.30
2018-09-19T00:25:55.852Z,90.40
2018-09-19T00:28:24.333Z,90.50
2018-09-19T00:30:52.852Z,90.60
2018-09-19T00:33:21.445Z,90.80
2018-09-19T00:35:49.960Z,90.90
2018-09-19T00:38:18.449Z,91.10
2018-09-19T00:40:46.858Z,91.30
2018-09-19T00:43:15.340Z,91.50
2018-09-19T00:45:43.775Z,91.70
2018-09-19T00:48:12.243Z,91.90
2018-09-19T00:50:40.735Z,92.20
2018-09-19T00:53:09.212Z,92.20
2018-09-19T00:55:37.832Z,92.40
2018-09-19T00:58:06.373Z,92.80
2018-09-19T01:00:34.978Z,93.30
2018-09-19T01:03:03.523Z,93.20
2018-09-19T01:05:32.012Z,93.30
2018-09-19T01:08:00.545Z,94.00
2018-09-19T01:10:29.054Z,93.60
2018-09-19T01:12:57.570Z,93.90
2018-09-19T01:15:26.024Z,94.20
2018-09-19T01:17:54.492Z,94.30
2018-09-19T01:20:23.049Z,94.90
2018-09-19T01:22:51.492Z,94.80
2018-09-19T01:25:19.956Z,95.00
2018-09-19T01:27:48.408Z,95.10
2018-09-19T01:30:16.956Z,95.20
2018-09-19T01:32:45.506Z,95.40
2018-09-19T01:35:14.230Z,95.60
2018-09-19T01:37:42.847Z,95.70
2018-09-19T01:40:11.370Z,95.70
2018-09-19T01:42:39.881Z,95.90
2018-09-19T01:45:08.359Z,95.90
2018-09-19T01:47:36.932Z,95.90
2018-09-19T01:50:05.475Z,96.10
2018-09-19T01:52:33.900Z,96.20
2018-09-19T01:55:02.514Z,96.30
2018-09-19T01:57:30.958Z,96.50
2018-09-19T01:59:59.531Z,96.50
2018-09-19T02:02:28.000Z,96.60
2018-09-19T02:04:56.455Z,96.90
2018-09-19T02:07:24.985Z,96.90
2018-09-19T02:09:53.412Z,96.80
2018-09-19T02:12:21.952Z,97.30
2018-09-19T02:14:50.437Z,97.50
2018-09-19T02:17:19.048Z,97.50
2018-09-19T02:19:47.528Z,97.90
2018-09-19T02:22:16.008Z,98.00
2018-09-19T02:24:44.409Z,97.90
2018-09-19T02:27:12.918Z,98.00
2018-09-19T02:29:41.432Z,98.10
2018-09-19T02:32:09.933Z,98.40
2018-09-19T02:34:38.394Z,98.50
2018-09-19T02:37:06.855Z,98.50
2018-09-19T02:39:35.333Z,98.70
2018-09-19T02:42:03.832Z,98.80
2018-09-19T02:44:32.331Z,99.10
2018-09-19T02:47:00.817Z,99.10
2018-09-19T02:49:29.245Z,99.20
2018-09-19T02:51:58.385Z,99.30
2018-09-19T02:54:29.135Z,99.40
2018-09-19T02:56:57.754Z,99.40
2018-09-19T02:59:26.464Z,99.50
2018-09-19T03:01:54.957Z,99.50
2018-09-19T03:04:23.426Z,99.70
2018-09-19T03:06:51.902Z,99.70
2018-09-19T03:09:20.401Z,99.80
2018-09-19T03:11:48.890Z,99.90
2018-09-19T03:14:17.407Z,99.90
2018-09-19T03:16:46.180Z,99.90
2018-09-19T03:19:14.732Z,99.90
2018-09-19T03:21:43.230Z,99.90
2018-09-19T03:24:11.737Z,99.90
2018-09-19T03:26:40.243Z,99.90
2018-09-19T03:29:08.694Z,99.90
2018-09-19T03:31:37.337Z,99.90
2018-09-19T03:34:05.992Z,99.90
2018-09-19T03:36:34.696Z,99.90
2018-09-19T03:39:03.526Z,99.90
2018-09-19T03:41:32.117Z,99.90
2018-09-19T03:44:00.711Z,99.90
2018-09-19T03:46:29.176Z,99.90
2018-09-19T03:48:57.757Z,99.90
2018-09-19T03:51:26.433Z,99.90
2018-09-19T03:53:54.861Z,99.90
2018-09-19T03:56:23.339Z,99.90
2018-09-19T03:58:51.841Z,99.90
2018-09-19T04:01:20.381Z,99.90
2018-09-19T04:03:48.889Z,99.90
2018-09-19T04:06:17.361Z,99.90
2018-09-19T04:08:45.951Z,99.90
2018-09-19T04:11:14.408Z,99.90
2018-09-19T04:13:42.986Z,99.90
2018-09-19T04:16:11.426Z,99.90
2018-09-19T04:18:39.869Z,99.90
2018-09-19T04:21:08.322Z,99.90
2018-09-19T04:23:36.782Z,99.90
2018-09-19T04:26:05.392Z,99.90
2018-09-19T04:28:33.796Z,99.90
2018-09-19T04:31:02.269Z,99.90
2018-09-19T04:33:30.732Z,99.90
2018-09-19T04:35:59.234Z,99.90
2018-09-19T04:38:27.932Z,99.90
2018-09-19T04:40:56.413Z,99.90
2018-09-19T04:43:25.071Z,99.90
2018-09-19T04:45:53.960Z,99.90
2018-09-19T04:48:23.485Z,99.90
2018-09-19T04:50:51.966Z,99.90
2018-09-19T04:53:20.446Z,99.90
2018-09-19T04:55:49.176Z,99.90
2018-09-19T04:58:17.686Z,99.90
2018-09-19T05:00:46.146Z,99.90
2018-09-19T05:03:14.777Z,99.90
2018-09-19T05:05:43.323Z,99.90
2018-09-19T05:08:11.787Z,99.90
2018-09-19T05:10:40.213Z,99.90
2018-09-19T05:13:08.810Z,99.90
2018-09-19T05:15:37.563Z,99.90
2018-09-19T05:18:06.292Z,99.90
2018-09-19T05:20:35.035Z,99.90
2018-09-19T05:23:03.718Z,99.90
2018-09-19T05:25:32.584Z,99.90
2018-09-19T05:28:04.203Z,99.90
2018-09-19T05:30:33.052Z,99.90
2018-09-19T05:33:01.685Z,99.90
2018-09-19T05:35:30.458Z,99.90
2018-09-19T05:37:59.051Z,99.90
2018-09-19T05:40:28.011Z,99.90
2018-09-19T05:42:56.725Z,99.90
2018-09-19T05:45:25.495Z,99.90
2018-09-19T05:47:54.296Z,99.90
2018-09-19T05:50:22.988Z,99.90
2018-09-19T05:52:51.421Z,99.90
2018-09-19T05:55:20.050Z,99.80
2018-09-19T05:57:48.888Z,99.60
2018-09-19T06:00:17.605Z,99.40
2018-09-19T06:02:46.240Z,99.40
2018-09-19T06:05:14.829Z,98.90
2018-09-19T06:07:43.268Z,98.50
2018-09-19T06:10:11.778Z,98.30
2018-09-19T06:12:40.268Z,97.80
2018-09-19T06:15:08.773Z,97.40
2018-09-19T06:17:37.764Z,97.00
2018-09-19T06:20:06.902Z,96.50
2018-09-19T06:22:35.322Z,96.10
2018-09-19T06:25:04.054Z,95.40
2018-09-19T06:27:32.625Z,94.80
2018-09-19T06:30:01.689Z,94.20
2018-09-19T06:32:30.173Z,94.00
2018-09-19T06:34:58.641Z,93.40
2018-09-19T06:37:27.226Z,92.20
2018-09-19T06:39:55.739Z,91.80
2018-09-19T06:42:24.230Z,91.20
2018-09-19T06:44:52.794Z,88.90
2018-09-19T06:47:21.248Z,85.00
2018-09-19T06:49:49.731Z,80.80
2018-09-19T06:52:18.282Z,78.00
2018-09-19T06:54:46.681Z,73.40
2018-09-19T06:57:15.218Z,68.50
2018-09-19T06:59:43.770Z,66.80
2018-09-19T07:02:12.430Z,64.90
2018-09-19T07:04:40.957Z,63.40
2018-09-19T07:07:09.472Z,59.80
2018-09-19T07:09:38.556Z,59.00
2018-09-19T07:12:07.079Z,58.80
2018-09-19T07:14:35.535Z,56.60
2018-09-19T07:17:04.026Z,55.40
2018-09-19T07:19:32.462Z,54.70
2018-09-19T07:22:01.001Z,52.90
2018-09-19T07:24:29.427Z,51.00
2018-09-19T07:26:57.899Z,50.10
2018-09-19T07:29:26.340Z,48.20
2018-09-19T07:31:54.785Z,47.50
2018-09-19T07:34:23.238Z,46.80
2018-09-19T07:36:51.718Z,45.90
2018-09-19T07:39:20.239Z,45.00
2018-09-19T07:41:48.749Z,44.70
2018-09-19T07:44:17.305Z,43.90
2018-09-19T07:46:45.892Z,43.20
2018-09-19T07:49:14.293Z,42.70
2018-09-19T07:51:42.736Z,42.70
2018-09-19T07:54:11.353Z,42.60
2018-09-19T07:56:39.965Z,41.40
2018-09-19T07:59:10.195Z,41.60
2018-09-19T08:01:38.838Z,41.30
2018-09-19T08:04:07.415Z,40.90
2018-09-19T08:06:35.833Z,40.10
2018-09-19T08:09:06.165Z,39.70
2018-09-19T08:11:34.602Z,39.10
2018-09-19T08:14:03.108Z,39.10
2018-09-19T08:16:31.578Z,39.10
2018-09-19T08:19:00.034Z,39.50
2018-09-19T08:21:28.532Z,39.20
2018-09-19T08:23:56.975Z,38.80
2018-09-19T08:26:25.434Z,38.50
2018-09-19T08:28:53.869Z,39.20
2018-09-19T08:31:22.328Z,40.80
2018-09-19T08:33:50.836Z,42.40
2018-09-19T08:36:19.312Z,43.90
2018-09-19T08:38:47.802Z,44.80
2018-09-19T08:41:16.273Z,46.20
2018-09-19T08:43:44.748Z,46.20
2018-09-19T08:46:13.265Z,47.10
2018-09-19T08:48:41.910Z,46.70
2018-09-19T08:51:10.401Z,46.20
2018-09-19T08:53:39.041Z,45.90
2018-09-19T08:56:07.481Z,45.80
2018-09-19T08:58:35.960Z,45.20
2018-09-19T09:01:04.433Z,44.90
2018-09-19T09:03:32.884Z,43.90
2018-09-19T09:06:01.370Z,43.40
2018-09-19T09:08:29.824Z,41.80
2018-09-19T09:10:58.245Z,41.00
2018-09-19T09:13:26.745Z,39.90
2018-09-19T09:15:55.200Z,40.10
2018-09-19T09:18:23.645Z,40.40
2018-09-19T09:20:52.089Z,38.90
2018-09-19T09:23:20.563Z,37.90
2018-09-19T09:25:49.032Z,36.90
2018-09-19T09:28:17.600Z,36.70
2018-09-19T09:30:46.146Z,36.70
2018-09-19T09:33:14.623Z,36.00
2018-09-19T09:35:43.093Z,35.30
2018-09-19T09:38:11.624Z,34.40
2018-09-19T09:40:40.056Z,33.80
2018-09-19T09:43:08.499Z,33.50
2018-09-19T09:45:36.981Z,33.60
2018-09-19T09:48:05.777Z,33.40
2018-09-19T09:50:34.302Z,33.60
2018-09-19T09:53:02.819Z,32.80
2018-09-19T09:55:31.282Z,32.90
2018-09-19T09:57:59.733Z,32.30
2018-09-19T10:00:33.460Z,31.90
2018-09-19T10:03:01.985Z,32.00
2018-09-19T10:05:30.678Z,31.90
2018-09-19T10:07:59.132Z,32.20
2018-09-19T10:10:27.552Z,33.10
2018-09-19T10:12:56.104Z,33.90
2018-09-19T10:15:24.565Z,34.90
2018-09-19T10:17:53.017Z,35.40
2018-09-19T10:20:21.470Z,36.30
2018-09-19T10:22:49.931Z,37.60
2018-09-19T10:25:18.400Z,38.80
2018-09-19T10:27:47.024Z,39.10
2018-09-19T10:30:15.513Z,39.70
2018-09-19T10:32:44.246Z,39.10
2018-09-19T10:35:12.714Z,38.10
2018-09-19T10:37:41.149Z,37.60
2018-09-19T10:40:09.835Z,37.50
2018-09-19T10:42:38.735Z,37.40
2018-09-19T10:45:07.992Z,36.40
2018-09-19T10:47:37.144Z,34.70
2018-09-19T10:50:06.146Z,34.00
2018-09-19T10:52:34.756Z,33.90
2018-09-19T10:55:03.324Z,34.20
2018-09-19T10:57:31.998Z,34.30
2018-09-19T11:00:01.986Z,35.00
2018-09-19T11:02:30.484Z,34.70
2018-09-19T11:04:59.172Z,34.60
2018-09-19T11:07:27.902Z,35.20
2018-09-19T11:09:56.747Z,36.00
2018-09-19T11:12:25.395Z,37.00
2018-09-19T11:14:54.033Z,37.10
2018-09-19T11:17:23.830Z,37.60
2018-09-19T11:19:52.388Z,38.30
2018-09-19T11:22:21.025Z,38.90
2018-09-19T11:24:49.653Z,39.30
2018-09-19T11:27:18.283Z,39.70
2018-09-19T11:29:46.829Z,39.40
2018-09-19T11:32:15.531Z,39.50
2018-09-19T11:34:44.078Z,39.00
2018-09-19T11:37:12.534Z,38.50
2018-09-19T11:39:41.009Z,38.40
2018-09-19T11:42:09.633Z,38.00
2018-09-19T11:44:38.075Z,37.60
2018-09-19T11:47:06.744Z,37.40
2018-09-19T11:49:35.333Z,37.50
2018-09-19T11:52:03.896Z,37.80
2018-09-19T11:54:32.590Z,38.20
2018-09-19T11:57:01.405Z,38.50
2018-09-19T11:59:30.194Z,38.70
2018-09-19T12:01:59.068Z,38.80
2018-09-19T12:04:28.114Z,38.60
2018-09-19T12:06:56.946Z,38.50
2018-09-19T12:09:25.389Z,38.20
2018-09-19T12:11:53.892Z,38.40
2018-09-19T12:14:22.660Z,37.90
2018-09-19T12:16:51.408Z,37.40
2018-09-19T12:19:19.892Z,37.40
2018-09-19T12:21:48.393Z,38.00
2018-09-19T12:24:17.084Z,38.40
2018-09-19T12:26:45.723Z,38.70
2018-09-19T12:29:14.310Z,39.10
2018-09-19T12:31:42.918Z,39.30
2018-09-19T12:34:11.687Z,39.40
2018-09-19T12:36:40.175Z,39.70
2018-09-19T12:39:09.992Z,39.70
2018-09-19T12:41:38.819Z,39.70
2018-09-19T12:44:07.376Z,39.60
2018-09-19T12:46:36.223Z,39.40
2018-09-19T12:49:04.978Z,39.60
2018-09-19T12:51:33.461Z,39.70
2018-09-19T12:54:02.271Z,39.80
2018-09-19T12:56:31.037Z,39.70
2018-09-19T12:59:00.164Z,39.50
2018-09-19T13:01:28.720Z,39.30
2018-09-19T13:03:57.179Z,39.30
2018-09-19T13:06:25.668Z,39.40
2018-09-19T13:08:54.254Z,39.70
2018-09-19T13:11:22.851Z,39.70
2018-09-19T13:13:51.451Z,39.70
2018-09-19T13:16:19.903Z,39.90
2018-09-19T13:18:48.475Z,39.80
2018-09-19T13:21:17.177Z,40.00
2018-09-19T13:23:45.636Z,40.30
2018-09-19T13:26:14.151Z,40.20
2018-09-19T13:28:42.685Z,40.50
2018-09-19T13:31:11.220Z,40.50
2018-09-19T13:33:39.711Z,41.30
2018-09-19T13:36:08.946Z,40.90
2018-09-19T13:38:38.005Z,40.50
2018-09-19T13:41:06.826Z,40.10
2018-09-19T13:43:35.928Z,39.80
2018-09-19T13:46:04.559Z,39.70
2018-09-19T13:48:37.332Z,39.90
2018-09-19T13:51:14.808Z,40.10
2018-09-19T13:53:43.255Z,40.40
2018-09-19T13:56:11.768Z,40.40
2018-09-19T13:58:40.243Z,40.20
2018-09-19T14:01:08.784Z,39.70
2018-09-19T14:03:37.288Z,39.70
2018-09-19T14:06:06.443Z,40.00
2018-09-19T14:08:34.957Z,40.50
2018-09-19T14:11:03.545Z,40.70
2018-09-19T14:13:32.119Z,40.80
2018-09-19T14:16:00.561Z,41.00
2018-09-19T14:18:29.073Z,41.00
2018-09-19T14:20:57.627Z,41.10
2018-09-19T14:23:26.295Z,40.80
2018-09-19T14:25:54.749Z,40.30
2018-09-19T14:28:23.279Z,40.30
2018-09-19T14:30:51.699Z,40.60
2018-09-19T14:33:20.511Z,40.70
2018-09-19T14:35:49.088Z,40.80
2018-09-19T14:38:17.692Z,41.10
2018-09-19T14:40:46.127Z,41.30
2018-09-19T14:43:14.642Z,41.10
2018-09-19T14:45:43.259Z,41.10
2018-09-19T14:48:11.927Z,41.30
2018-09-19T14:50:40.534Z,41.20
2018-09-19T14:53:09.131Z,41.10
2018-09-19T14:55:37.946Z,41.60
2018-09-19T14:58:06.679Z,41.20
2018-09-19T15:00:35.324Z,40.90
2018-09-19T15:03:03.849Z,41.00
2018-09-19T15:05:32.814Z,41.30
2018-09-19T15:08:01.655Z,41.40
2018-09-19T15:10:30.205Z,40.90
2018-09-19T15:12:58.674Z,40.80
2018-09-19T15:15:27.528Z,40.80
2018-09-19T15:17:56.224Z,40.70
2018-09-19T15:20:24.803Z,40.60
2018-09-19T15:22:53.380Z,40.60
2018-09-19T15:25:22.027Z,40.90
2018-09-19T15:27:50.669Z,41.30
2018-09-19T15:30:19.218Z,41.50
2018-09-19T15:32:47.709Z,41.60
2018-09-19T15:35:16.456Z,41.60
2018-09-19T15:37:45.350Z,41.50
2018-09-19T15:40:14.302Z,41.40
2018-09-19T15:42:42.913Z,41.00
2018-09-19T15:45:11.706Z,41.10
2018-09-19T15:47:40.225Z,41.10
2018-09-19T15:50:08.719Z,41.10
2018-09-19T15:52:37.301Z,41.20
2018-09-19T15:55:05.819Z,41.30
2018-09-19T15:57:34.364Z,41.40
2018-09-19T16:00:03.000Z,41.60
2018-09-19T16:02:31.473Z,41.40
2018-09-19T16:05:00.329Z,41.60
2018-09-19T16:07:28.900Z,41.60
2018-09-19T16:09:57.437Z,41.80
2018-09-19T16:12:25.957Z,41.80
2018-09-19T16:14:54.736Z,42.00
2018-09-19T16:17:23.559Z,42.10
2018-09-19T16:19:52.280Z,42.20
2018-09-19T16:22:21.211Z,42.30
2018-09-19T16:24:49.852Z,42.50
2018-09-19T16:27:18.618Z,42.60
2018-09-19T16:29:47.351Z,42.80
2018-09-19T16:32:15.988Z,43.10
2018-09-19T16:34:44.533Z,43.20
2018-09-19T16:37:13.129Z,43.40
2018-09-19T16:39:41.863Z,43.40
2018-09-19T16:42:10.754Z,43.50
2018-09-19T16:44:39.533Z,43.70
2018-09-19T16:47:08.179Z,43.50
2018-09-19T16:49:36.820Z,43.70
2018-09-19T16:52:05.463Z,43.50
2018-09-19T16:54:34.189Z,43.60
2018-09-19T16:57:02.850Z,43.70
2018-09-19T16:59:31.472Z,43.90
2018-09-19T17:02:00.154Z,43.90
2018-09-19T17:04:29.408Z,44.20
2018-09-19T17:06:59.421Z,44.40
2018-09-19T17:09:28.450Z,44.50
2018-09-19T17:11:57.775Z,44.80
2018-09-19T17:14:27.137Z,45.00
2018-09-19T17:16:56.127Z,45.30
2018-09-19T17:19:24.963Z,45.60
2018-09-19T17:21:53.555Z,45.90
2018-09-19T17:24:22.571Z,46.10
2018-09-19T17:26:51.149Z,46.20
2018-09-19T17:29:19.744Z,46.40
2018-09-19T17:31:48.625Z,46.70
2018-09-19T17:34:17.268Z,47.00
2018-09-19T17:36:46.114Z,47.30
2018-09-19T17:39:14.648Z,47.30
2018-09-19T17:41:43.273Z,47.70
2018-09-19T17:44:11.845Z,48.00
2018-09-19T17:46:40.608Z,48.10
2018-09-19T17:49:09.305Z,48.30
2018-09-19T17:51:37.967Z,48.50
2018-09-19T17:54:07.688Z,48.70
2018-09-19T17:56:36.404Z,49.00
2018-09-19T17:59:05.072Z,49.40
2018-09-19T18:01:33.956Z,49.60
2018-09-19T18:04:02.646Z,49.70
2018-09-19T18:06:31.440Z,49.90
2018-09-19T18:09:00.304Z,50.10
2018-09-19T18:11:29.268Z,50.20
2018-09-19T18:13:57.885Z,50.80
2018-09-19T18:16:27.415Z,50.80
2018-09-19T18:18:56.073Z,50.80
2018-09-19T18:21:24.693Z,50.90
2018-09-19T18:23:53.700Z,50.90
2018-09-19T18:26:22.228Z,51.00
2018-09-19T18:28:50.811Z,51.10
2018-09-19T18:31:19.490Z,51.90
2018-09-19T18:33:48.234Z,51.50
2018-09-19T18:36:16.833Z,51.60
2018-09-19T18:38:45.397Z,51.80
2018-09-19T18:41:13.937Z,51.80
2018-09-19T18:43:42.609Z,51.90
2018-09-19T18:46:11.893Z,51.80
2018-09-19T18:48:40.405Z,52.30
2018-09-19T18:51:08.974Z,51.80
2018-09-19T18:53:37.740Z,51.80
2018-09-19T18:56:06.454Z,51.80
2018-09-19T18:58:35.030Z,51.90
2018-09-19T19:01:03.777Z,51.90
2018-09-19T19:03:32.743Z,51.90
2018-09-19T19:06:01.437Z,52.20
2018-09-19T19:08:30.170Z,52.00
2018-09-19T19:10:58.863Z,52.10
2018-09-19T19:13:27.493Z,52.10
2018-09-19T19:15:56.488Z,52.00
2018-09-19T19:18:25.267Z,52.00
2018-09-19T19:20:54.328Z,52.10
2018-09-19T19:23:22.896Z,52.10
2018-09-19T19:25:53.005Z,52.20
2018-09-19T19:28:21.740Z,52.30
2018-09-19T19:30:50.534Z,52.30
2018-09-19T19:33:19.974Z,52.50
2018-09-19T19:35:48.951Z,52.70
2018-09-19T19:38:21.142Z,52.90
2018-09-19T19:40:51.208Z,53.00
2018-09-19T19:43:20.561Z,53.20
2018-09-19T19:45:49.522Z,53.50
2018-09-19T19:48:18.531Z,53.70
2018-09-19T19:50:47.815Z,54.00
2018-09-19T19:53:17.397Z,54.30
2018-09-19T19:55:46.237Z,54.70
2018-09-19T19:58:15.181Z,54.80
2018-09-19T20:00:44.474Z,55.20
2018-09-19T20:03:14.284Z,55.40
2018-09-19T20:05:43.747Z,55.80
2018-09-19T20:08:13.308Z,56.10
2018-09-19T20:10:41.908Z,56.30
2018-09-19T20:13:10.725Z,56.60
2018-09-19T20:15:39.270Z,56.90
2018-09-19T20:18:08.089Z,57.70
2018-09-19T20:20:36.595Z,57.30
2018-09-19T20:23:06.030Z,57.50
2018-09-19T20:25:34.587Z,57.80
2018-09-19T20:28:03.238Z,57.90
2018-09-19T20:30:31.708Z,58.10
2018-09-19T20:33:00.161Z,58.20
2018-09-19T20:35:28.629Z,58.60
2018-09-19T20:37:58.090Z,59.00
2018-09-19T20:40:26.537Z,59.10
2018-09-19T20:42:56.176Z,59.30
2018-09-19T20:45:24.644Z,59.40
2018-09-19T20:47:54.158Z,59.50
2018-09-19T20:50:22.627Z,59.50
2018-09-19T20:52:51.377Z,59.50
2018-09-19T20:55:19.870Z,59.30
2018-09-19T20:57:48.972Z,59.30
2018-09-19T21:00:17.445Z,59.40
2018-09-19T21:02:45.916Z,59.90
2018-09-19T21:05:14.377Z,59.40
2018-09-19T21:07:42.806Z,59.60
2018-09-19T21:10:11.255Z,59.70
2018-09-19T21:12:39.932Z,59.90
2018-09-19T21:15:08.425Z,60.00
2018-09-19T21:17:36.893Z,60.30
2018-09-19T21:20:05.686Z,60.50
2018-09-19T21:22:34.197Z,60.80
2018-09-19T21:25:02.722Z,60.90
2018-09-19T21:27:31.251Z,61.20
2018-09-19T21:29:59.713Z,61.40
2018-09-19T21:32:28.277Z,61.50
2018-09-19T21:34:56.790Z,61.90
2018-09-19T21:37:25.307Z,61.80
2018-09-19T21:39:53.800Z,62.20
2018-09-19T21:42:22.446Z,63.00
2018-09-19T21:44:50.974Z,62.40
2018-09-19T21:47:19.413Z,62.70
2018-09-19T21:49:47.943Z,62.90
2018-09-19T21:52:16.684Z,63.10
2018-09-19T21:54:45.153Z,63.30
2018-09-19T21:57:13.706Z,63.70
2018-09-19T21:59:42.182Z,63.90
2018-09-19T22:02:10.728Z,64.40
2018-09-19T22:04:39.293Z,65.40
2018-09-19T22:07:07.790Z,66.90
2018-09-19T22:09:36.277Z,67.30
2018-09-19T22:12:08.944Z,68.30
2018-09-19T22:14:37.729Z,69.00
2018-09-19T22:17:06.524Z,69.90
2018-09-19T22:19:35.256Z,70.90
2018-09-19T22:22:03.837Z,71.70
2018-09-19T22:24:32.705Z,72.50
2018-09-19T22:27:01.180Z,73.40
2018-09-19T22:29:29.624Z,73.90
2018-09-19T22:31:58.186Z,74.90
2018-09-19T22:34:26.814Z,75.90
2018-09-19T22:36:55.307Z,76.60
2018-09-19T22:39:23.915Z,77.20
2018-09-19T22:41:52.426Z,78.20
2018-09-19T22:44:20.955Z,79.10
2018-09-19T22:46:49.505Z,79.90
2018-09-19T22:49:18.046Z,80.40
2018-09-19T22:51:46.607Z,80.80
2018-09-19T22:54:15.046Z,81.90
2018-09-19T22:56:43.726Z,81.80
2018-09-19T22:59:12.425Z,83.10
2018-09-19T23:01:40.997Z,83.70
2018-09-19T23:04:09.505Z,84.40
2018-09-19T23:06:38.232Z,85.30
2018-09-19T23:09:07.896Z,85.80
2018-09-19T23:11:36.423Z,86.30
2018-09-19T23:14:04.930Z,87.40
2018-09-19T23:16:33.437Z,87.00
2018-09-19T23:19:02.284Z,87.40
2018-09-19T23:21:30.829Z,87.80
2018-09-19T23:23:59.441Z,88.20
2018-09-19T23:26:28.076Z,88.80
2018-09-19T23:28:56.629Z,89.10
2018-09-19T23:31:25.358Z,89.30
2018-09-19T23:33:54.395Z,89.50
2018-09-19T23:36:23.024Z,89.80
2018-09-19T23:38:51.605Z,90.00
2018-09-19T23:41:20.086Z,90.20
2018-09-19T23:43:48.624Z,90.70
2018-09-19T23:46:17.102Z,90.40
2018-09-19T23:48:45.648Z,90.70
2018-09-19T23:51:14.196Z,91.00
2018-09-19T23:53:42.719Z,91.20
2018-09-19T23:56:11.201Z,91.30
2018-09-19T23:58:39.654Z,91.40
